aviador You're here:

EICK Decoded Metar

CORK in IRELAND
Report Time2017-08-19 20:00:00
UTC Time2017-08-19 20:26:15
Flight Rules vfr VFR
Wind230° at 05 kt
W.Decomp.*RWY 25: 4.8 kt HW 1.3 kt LCW
RWY 17: 2.1 kt HW 4.5 kt RCW
W.Rank230° ranks 1
Current wind is below 230° avg. (9.8)
Visibility9999 m
Phenomena:N/A
Clouds:Few 018 Hf
Broken 120 Hf
Expected CloudBase > 1,600 ft AGL from Temp-Dew spread
Ceiling12,000 ft
Temp13°C (ISA -1)
Dew Point09°C (77% RH)
AAT11.0°C
QNH1021 hPa
Density Alt269 ft
Elevation502 ft
Report Wrong Elevation
Raw Report
EICK 192000Z 23005KT 9999 FEW018 BKN120 13/09 Q1021 NOSIG=

Extra information for EICK:More info

Metar Taf Metar & Taf Last 4 Metars F.Rules Stats Wind Profile Meteogram Temp Stats Airport Information Weather charts Add Link Nearby VenuesMetar ALERT Operation Metar Decoded Social comments